sensor_id;sensor_type;location;lat;lon;timestamp;pressure;altitude;pressure_sealevel;temperature;humidity
69980;BME280;57318;56.232;43.944;2023-04-25T00:02:05;99291.97;;;10.69;50.14
69980;BME280;57318;56.232;43.944;2023-04-25T00:04:32;99303.47;;;10.69;50.37
69980;BME280;57318;56.232;43.944;2023-04-25T00:07:00;99297.53;;;10.65;50.43
69980;BME280;57318;56.232;43.944;2023-04-25T00:09:29;99296.00;;;10.63;50.70
69980;BME280;57318;56.232;43.944;2023-04-25T00:11:55;99300.44;;;10.62;50.68
69980;BME280;57318;56.232;43.944;2023-04-25T00:14:21;99299.63;;;10.62;50.64
69980;BME280;57318;56.232;43.944;2023-04-25T00:16:47;99306.75;;;10.61;50.76
69980;BME280;57318;56.232;43.944;2023-04-25T00:19:13;99305.88;;;10.61;50.80
69980;BME280;57318;56.232;43.944;2023-04-25T00:21:39;99307.72;;;10.60;50.85
69980;BME280;57318;56.232;43.944;2023-04-25T00:24:08;99309.78;;;10.57;50.94
69980;BME280;57318;56.232;43.944;2023-04-25T00:26:34;99306.41;;;10.55;50.77
69980;BME280;57318;56.232;43.944;2023-04-25T00:29:01;99308.34;;;10.53;50.93
69980;BME280;57318;56.232;43.944;2023-04-25T00:31:27;99304.28;;;10.49;51.26
69980;BME280;57318;56.232;43.944;2023-04-25T00:33:54;99308.00;;;10.46;51.19
69980;BME280;57318;56.232;43.944;2023-04-25T00:36:20;99303.91;;;10.42;51.38
69980;BME280;57318;56.232;43.944;2023-04-25T00:38:45;99312.97;;;10.39;51.54
69980;BME280;57318;56.232;43.944;2023-04-25T00:41:11;99306.09;;;10.37;51.71
69980;BME280;57318;56.232;43.944;2023-04-25T00:43:37;99306.22;;;10.35;51.78
69980;BME280;57318;56.232;43.944;2023-04-25T00:46:03;99302.84;;;10.33;51.96
69980;BME280;57318;56.232;43.944;2023-04-25T00:48:29;99300.28;;;10.32;51.94
69980;BME280;57318;56.232;43.944;2023-04-25T00:50:57;99306.69;;;10.29;52.29
69980;BME280;57318;56.232;43.944;2023-04-25T00:53:26;99311.03;;;10.30;52.30
69980;BME280;57318;56.232;43.944;2023-04-25T00:55:52;99310.31;;;10.28;52.56
69980;BME280;57318;56.232;43.944;2023-04-25T00:58:19;99311.16;;;10.28;52.72
69980;BME280;57318;56.232;43.944;2023-04-25T01:00:46;99303.06;;;10.30;52.58
69980;BME280;57318;56.232;43.944;2023-04-25T01:03:13;99304.88;;;10.29;52.58
69980;BME280;57318;56.232;43.944;2023-04-25T01:05:42;99299.69;;;10.28;52.62
69980;BME280;57318;56.232;43.944;2023-04-25T01:08:08;99297.88;;;10.28;52.43
69980;BME280;57318;56.232;43.944;2023-04-25T01:10:35;99298.00;;;10.27;53.04
69980;BME280;57318;56.232;43.944;2023-04-25T01:13:01;99300.41;;;10.30;52.65
69980;BME280;57318;56.232;43.944;2023-04-25T01:15:27;99302.09;;;10.31;52.57
69980;BME280;57318;56.232;43.944;2023-04-25T01:17:53;99293.28;;;10.30;52.75
69980;BME280;57318;56.232;43.944;2023-04-25T01:20:21;99292.22;;;10.33;52.59
69980;BME280;57318;56.232;43.944;2023-04-25T01:22:47;99290.50;;;10.32;52.39
69980;BME280;57318;56.232;43.944;2023-04-25T01:25:14;99294.03;;;10.33;52.54
69980;BME280;57318;56.232;43.944;2023-04-25T01:27:40;99289.66;;;10.32;52.77
69980;BME280;57318;56.232;43.944;2023-04-25T01:30:08;99285.19;;;10.32;52.81
69980;BME280;57318;56.232;43.944;2023-04-25T01:32:35;99296.19;;;10.39;52.64
69980;BME280;57318;56.232;43.944;2023-04-25T01:35:06;99296.78;;;10.42;52.76
69980;BME280;57318;56.232;43.944;2023-04-25T01:37:42;99299.06;;;10.47;52.58
69980;BME280;57318;56.232;43.944;2023-04-25T01:40:10;99299.91;;;10.47;52.42
69980;BME280;57318;56.232;43.944;2023-04-25T01:42:41;99305.22;;;10.47;52.54
69980;BME280;57318;56.232;43.944;2023-04-25T01:45:08;99306.06;;;10.48;52.69
69980;BME280;57318;56.232;43.944;2023-04-25T01:47:34;99310.53;;;10.47;52.76
69980;BME280;57318;56.232;43.944;2023-04-25T01:50:04;99309.72;;;10.47;52.72
69980;BME280;57318;56.232;43.944;2023-04-25T01:52:30;99296.66;;;10.44;53.01
69980;BME280;57318;56.232;43.944;2023-04-25T01:54:57;99304.78;;;10.42;52.99
69980;BME280;57318;56.232;43.944;2023-04-25T01:57:22;99308.13;;;10.44;53.17
69980;BME280;57318;56.232;43.944;2023-04-25T01:59:48;99309.84;;;10.45;53.15
69980;BME280;57318;56.232;43.944;2023-04-25T02:02:14;99301.88;;;10.45;53.40
69980;BME280;57318;56.232;43.944;2023-04-25T02:04:40;99304.28;;;10.49;53.29
69980;BME280;57318;56.232;43.944;2023-04-25T02:07:06;99308.59;;;10.50;53.41
69980;BME280;57318;56.232;43.944;2023-04-25T02:09:32;99305.69;;;10.53;53.16
69980;BME280;57318;56.232;43.944;2023-04-25T02:11:57;99296.03;;;10.52;53.17
69980;BME280;57318;56.232;43.944;2023-04-25T02:14:23;99297.72;;;10.53;53.39
69980;BME280;57318;56.232;43.944;2023-04-25T02:16:49;99300.00;;;10.57;53.25
69980;BME280;57318;56.232;43.944;2023-04-25T02:19:16;99306.00;;;10.59;53.15
69980;BME280;57318;56.232;43.944;2023-04-25T02:21:42;99305.19;;;10.59;53.19
69980;BME280;57318;56.232;43.944;2023-04-25T02:24:08;99297.91;;;10.61;53.14
69980;BME280;57318;56.232;43.944;2023-04-25T02:26:34;99309.53;;;10.60;53.20
69980;BME280;57318;56.232;43.944;2023-04-25T02:29:00;99313.97;;;10.59;53.27
69980;BME280;57318;56.232;43.944;2023-04-25T02:31:26;99313.28;;;10.57;53.36
69980;BME280;57318;56.232;43.944;2023-04-25T02:33:52;99310.63;;;10.57;53.29
69980;BME280;57318;56.232;43.944;2023-04-25T02:36:17;99321.13;;;10.59;53.21
69980;BME280;57318;56.232;43.944;2023-04-25T02:38:43;99308.78;;;10.58;53.36
69980;BME280;57318;56.232;43.944;2023-04-25T02:41:09;99311.31;;;10.59;53.42
69980;BME280;57318;56.232;43.944;2023-04-25T02:43:35;99312.31;;;10.58;53.36
69980;BME280;57318;56.232;43.944;2023-04-25T02:46:00;99308.53;;;10.61;53.34
69980;BME280;57318;56.232;43.944;2023-04-25T02:48:26;99312.31;;;10.58;53.71
69980;BME280;57318;56.232;43.944;2023-04-25T02:50:52;99314.72;;;10.61;53.77
69980;BME280;57318;56.232;43.944;2023-04-25T02:53:17;99304.69;;;10.65;53.61
69980;BME280;57318;56.232;43.944;2023-04-25T02:55:43;99306.38;;;10.66;53.53
69980;BME280;57318;56.232;43.944;2023-04-25T02:58:09;99318.16;;;10.73;53.31
69980;BME280;57318;56.232;43.944;2023-04-25T03:00:35;99316.97;;;10.77;53.37
69980;BME280;57318;56.232;43.944;2023-04-25T03:03:01;99314.88;;;10.81;53.46
69980;BME280;57318;56.232;43.944;2023-04-25T03:05:27;99312.66;;;10.86;53.37
69980;BME280;57318;56.232;43.944;2023-04-25T03:07:52;99327.28;;;10.92;53.05
69980;BME280;57318;56.232;43.944;2023-04-25T03:10:18;99319.03;;;10.95;53.13
69980;BME280;57318;56.232;43.944;2023-04-25T03:12:44;99317.84;;;10.99;52.95
69980;BME280;57318;56.232;43.944;2023-04-25T03:15:10;99316.59;;;11.03;52.82
69980;BME280;57318;56.232;43.944;2023-04-25T03:17:35;99314.13;;;11.11;52.68
69980;BME280;57318;56.232;43.944;2023-04-25T03:20:01;99309.41;;;11.15;52.58
69980;BME280;57318;56.232;43.944;2023-04-25T03:22:31;99306.22;;;11.21;52.50
69980;BME280;57318;56.232;43.944;2023-04-25T03:24:56;99315.47;;;11.27;52.37
69980;BME280;57318;56.232;43.944;2023-04-25T03:27:22;99314.84;;;11.34;51.79
69980;BME280;57318;56.232;43.944;2023-04-25T03:29:48;99316.84;;;11.42;51.83
69980;BME280;57318;56.232;43.944;2023-04-25T03:32:13;99316.88;;;11.52;51.64
69980;BME280;57318;56.232;43.944;2023-04-25T03:34:39;99310.34;;;11.56;51.30
69980;BME280;57318;56.232;43.944;2023-04-25T03:37:05;99316.97;;;11.62;51.12
69980;BME280;57318;56.232;43.944;2023-04-25T03:39:31;99317.53;;;11.65;50.83
69980;BME280;57318;56.232;43.944;2023-04-25T03:41:56;99316.66;;;11.65;50.86
69980;BME280;57318;56.232;43.944;2023-04-25T03:44:22;99312.78;;;11.69;50.84
69980;BME280;57318;56.232;43.944;2023-04-25T03:46:49;99315.88;;;11.74;50.69
69980;BME280;57318;56.232;43.944;2023-04-25T03:49:16;99312.69;;;11.80;50.54
69980;BME280;57318;56.232;43.944;2023-04-25T03:51:41;99303.31;;;11.86;50.47
69980;BME280;57318;56.232;43.944;2023-04-25T03:54:07;99306.41;;;11.91;50.14
69980;BME280;57318;56.232;43.944;2023-04-25T03:56:33;99315.13;;;11.93;50.19
69980;BME280;57318;56.232;43.944;2023-04-25T03:58:58;99316.38;;;11.89;50.40
69980;BME280;57318;56.232;43.944;2023-04-25T04:01:24;99314.03;;;11.96;50.38
69980;BME280;57318;56.232;43.944;2023-04-25T04:03:50;99318.81;;;12.02;50.26
69980;BME280;57318;56.232;43.944;2023-04-25T04:06:16;99313.06;;;11.97;50.16
69980;BME280;57318;56.232;43.944;2023-04-25T04:08:42;99314.47;;;12.01;50.39
69980;BME280;57318;56.232;43.944;2023-04-25T04:11:08;99312.97;;;12.08;50.03
69980;BME280;57318;56.232;43.944;2023-04-25T04:13:33;99313.78;;;12.08;50.30
69980;BME280;57318;56.232;43.944;2023-04-25T04:15:59;99312.41;;;12.14;50.04
69980;BME280;57318;56.232;43.944;2023-04-25T04:18:25;99307.50;;;12.19;49.76
69980;BME280;57318;56.232;43.944;2023-04-25T04:20:51;99311.59;;;12.23;49.79
69980;BME280;57318;56.232;43.944;2023-04-25T04:23:16;99308.41;;;12.30;49.67
69980;BME280;57318;56.232;43.944;2023-04-25T04:25:42;99311.91;;;12.40;49.51
69980;BME280;57318;56.232;43.944;2023-04-25T04:28:08;99308.41;;;12.49;49.10
69980;BME280;57318;56.232;43.944;2023-04-25T04:30:34;99318.53;;;12.55;49.31
69980;BME280;57318;56.232;43.944;2023-04-25T04:33:01;99315.84;;;12.65;48.88
69980;BME280;57318;56.232;43.944;2023-04-25T04:35:27;99310.38;;;12.67;48.61
69980;BME280;57318;56.232;43.944;2023-04-25T04:37:53;99315.72;;;12.76;48.36
69980;BME280;57318;56.232;43.944;2023-04-25T04:40:19;99308.72;;;12.85;48.19
69980;BME280;57318;56.232;43.944;2023-04-25T04:42:46;99303.22;;;12.96;47.95
69980;BME280;57318;56.232;43.944;2023-04-25T04:45:11;99311.94;;;13.08;47.47
69980;BME280;57318;56.232;43.944;2023-04-25T04:47:38;99303.78;;;13.10;47.39
69980;BME280;57318;56.232;43.944;2023-04-25T04:50:08;99307.28;;;13.20;47.31
69980;BME280;57318;56.232;43.944;2023-04-25T04:52:35;99310.53;;;13.33;46.86
69980;BME280;57318;56.232;43.944;2023-04-25T04:55:03;99311.59;;;13.41;46.76
69980;BME280;57318;56.232;43.944;2023-04-25T04:57:29;99307.09;;;13.51;46.68
69980;BME280;57318;56.232;43.944;2023-04-25T04:59:55;99313.84;;;13.55;46.15
69980;BME280;57318;56.232;43.944;2023-04-25T05:02:21;99313.94;;;13.63;45.73
69980;BME280;57318;56.232;43.944;2023-04-25T05:04:46;99315.19;;;13.69;46.02
69980;BME280;57318;56.232;43.944;2023-04-25T05:07:12;99317.69;;;13.80;45.97
69980;BME280;57318;56.232;43.944;2023-04-25T05:09:38;99310.59;;;13.89;45.59
69980;BME280;57318;56.232;43.944;2023-04-25T05:12:04;99302.97;;;14.04;45.36
69980;BME280;57318;56.232;43.944;2023-04-25T05:14:30;99303.59;;;14.16;45.12
69980;BME280;57318;56.232;43.944;2023-04-25T05:16:55;99312.41;;;14.26;44.77
69980;BME280;57318;56.232;43.944;2023-04-25T05:19:21;99303.88;;;14.40;44.52
69980;BME280;57318;56.232;43.944;2023-04-25T05:21:47;99314.56;;;14.40;44.45
69980;BME280;57318;56.232;43.944;2023-04-25T05:24:13;99315.16;;;14.52;44.21
69980;BME280;57318;56.232;43.944;2023-04-25T05:26:38;99305.56;;;14.59;44.01
69980;BME280;57318;56.232;43.944;2023-04-25T05:29:04;99315.22;;;14.70;43.51
69980;BME280;57318;56.232;43.944;2023-04-25T05:31:31;99306.44;;;14.78;43.85
69980;BME280;57318;56.232;43.944;2023-04-25T05:33:57;99317.06;;;14.88;43.75
69980;BME280;57318;56.232;43.944;2023-04-25T05:36:23;99317.66;;;15.00;42.91
69980;BME280;57318;56.232;43.944;2023-04-25T05:38:49;99316.56;;;15.10;42.74
69980;BME280;57318;56.232;43.944;2023-04-25T05:41:14;99319.84;;;15.22;42.48
69980;BME280;57318;56.232;43.944;2023-04-25T05:43:40;99315.06;;;15.34;42.21
69980;BME280;57318;56.232;43.944;2023-04-25T05:46:11;99316.50;;;15.46;42.38
69980;BME280;57318;56.232;43.944;2023-04-25T05:48:37;99310.97;;;15.48;42.08
69980;BME280;57318;56.232;43.944;2023-04-25T05:51:03;99309.75;;;15.68;41.92
69980;BME280;57318;56.232;43.944;2023-04-25T05:53:29;99305.38;;;15.85;41.03
69980;BME280;57318;56.232;43.944;2023-04-25T05:55:54;99315.63;;;15.98;40.65
69980;BME280;57318;56.232;43.944;2023-04-25T05:58:20;99305.00;;;16.15;40.30
69980;BME280;57318;56.232;43.944;2023-04-25T06:00:46;99303.38;;;16.30;40.24
69980;BME280;57318;56.232;43.944;2023-04-25T06:03:12;99301.91;;;16.52;39.60
69980;BME280;57318;56.232;43.944;2023-04-25T06:05:43;99299.41;;;16.67;39.19
69980;BME280;57318;56.232;43.944;2023-04-25T06:08:09;99305.63;;;16.84;38.56
69980;BME280;57318;56.232;43.944;2023-04-25T06:10:36;99294.59;;;17.04;38.06
69980;BME280;57318;56.232;43.944;2023-04-25T06:13:02;99292.56;;;17.22;37.51
69980;BME280;57318;56.232;43.944;2023-04-25T06:15:28;99298.63;;;17.33;35.93
69980;BME280;57318;56.232;43.944;2023-04-25T06:17:54;99294.72;;;17.35;35.46
69980;BME280;57318;56.232;43.944;2023-04-25T06:20:20;99293.88;;;17.59;35.01
69980;BME280;57318;56.232;43.944;2023-04-25T06:22:49;99299.06;;;18.71;33.16
69980;BME280;57318;56.232;43.944;2023-04-25T06:25:15;99293.88;;;20.35;30.16
69980;BME280;57318;56.232;43.944;2023-04-25T06:27:40;99289.91;;;22.09;27.85
69980;BME280;57318;56.232;43.944;2023-04-25T06:30:07;99295.78;;;23.82;25.20
69980;BME280;57318;56.232;43.944;2023-04-25T06:32:33;99299.72;;;25.40;22.89
69980;BME280;57318;56.232;43.944;2023-04-25T06:35:00;99304.50;;;26.74;21.55
69980;BME280;57318;56.232;43.944;2023-04-25T06:37:26;99296.97;;;28.18;19.97
69980;BME280;57318;56.232;43.944;2023-04-25T06:39:51;99310.00;;;29.48;18.32
69980;BME280;57318;56.232;43.944;2023-04-25T06:42:17;99311.84;;;30.43;17.38
69980;BME280;57318;56.232;43.944;2023-04-25T06:44:43;99309.59;;;30.18;17.25
69980;BME280;57318;56.232;43.944;2023-04-25T06:47:09;99304.56;;;29.87;17.24
69980;BME280;57318;56.232;43.944;2023-04-25T06:49:34;99303.25;;;29.73;17.55
69980;BME280;57318;56.232;43.944;2023-04-25T06:52:00;99301.13;;;30.41;16.93
69980;BME280;57318;56.232;43.944;2023-04-25T06:54:26;99304.94;;;30.63;16.64
69980;BME280;57318;56.232;43.944;2023-04-25T06:56:55;99312.97;;;31.29;16.18
69980;BME280;57318;56.232;43.944;2023-04-25T06:59:20;99314.00;;;31.55;15.87
69980;BME280;57318;56.232;43.944;2023-04-25T07:01:46;99300.72;;;31.90;15.77
69980;BME280;57318;56.232;43.944;2023-04-25T07:04:12;99300.94;;;32.31;15.38
69980;BME280;57318;56.232;43.944;2023-04-25T07:06:37;99301.38;;;32.07;15.18
69980;BME280;57318;56.232;43.944;2023-04-25T07:09:09;99298.97;;;31.30;15.79
69980;BME280;57318;56.232;43.944;2023-04-25T07:11:38;99303.28;;;31.54;15.80
69980;BME280;57318;56.232;43.944;2023-04-25T07:14:03;99308.75;;;31.16;15.77
69980;BME280;57318;56.232;43.944;2023-04-25T07:16:29;99306.22;;;30.82;16.25
69980;BME280;57318;56.232;43.944;2023-04-25T07:18:55;99299.81;;;30.99;16.28
69980;BME280;57318;56.232;43.944;2023-04-25T07:21:21;99315.28;;;31.85;15.68
69980;BME280;57318;56.232;43.944;2023-04-25T07:23:47;99303.09;;;32.18;14.86
69980;BME280;57318;56.232;43.944;2023-04-25T07:26:13;99309.34;;;32.67;14.61
69980;BME280;57318;56.232;43.944;2023-04-25T07:28:38;99306.59;;;33.03;14.44
69980;BME280;57318;56.232;43.944;2023-04-25T07:31:04;99307.69;;;33.12;14.32
69980;BME280;57318;56.232;43.944;2023-04-25T07:33:30;99291.19;;;32.86;14.38
69980;BME280;57318;56.232;43.944;2023-04-25T07:35:56;99300.84;;;33.20;14.25
69980;BME280;57318;56.232;43.944;2023-04-25T07:38:22;99306.31;;;33.56;13.86
69980;BME280;57318;56.232;43.944;2023-04-25T07:40:51;99294.25;;;33.26;14.11
69980;BME280;57318;56.232;43.944;2023-04-25T07:43:16;99290.63;;;33.51;13.81
69980;BME280;57318;56.232;43.944;2023-04-25T07:45:45;99289.50;;;33.68;13.73
69980;BME280;57318;56.232;43.944;2023-04-25T07:48:16;99295.25;;;34.52;13.17
69980;BME280;57318;56.232;43.944;2023-04-25T07:50:42;99298.13;;;35.50;12.44
69980;BME280;57318;56.232;43.944;2023-04-25T07:53:07;99296.97;;;35.22;12.45
69980;BME280;57318;56.232;43.944;2023-04-25T07:55:33;99284.59;;;35.49;11.65
69980;BME280;57318;56.232;43.944;2023-04-25T07:57:59;99285.09;;;35.21;12.27
69980;BME280;57318;56.232;43.944;2023-04-25T08:00:25;99279.56;;;35.21;12.44
69980;BME280;57318;56.232;43.944;2023-04-25T08:02:50;99279.28;;;34.94;12.58
69980;BME280;57318;56.232;43.944;2023-04-25T08:05:16;99262.31;;;34.26;13.00
69980;BME280;57318;56.232;43.944;2023-04-25T08:07:42;99267.88;;;34.11;13.02
69980;BME280;57318;56.232;43.944;2023-04-25T08:10:09;99268.06;;;33.13;13.57
69980;BME280;57318;56.232;43.944;2023-04-25T08:12:34;99258.47;;;32.95;13.95
69980;BME280;57318;56.232;43.944;2023-04-25T08:15:00;99265.88;;;32.84;13.90
69980;BME280;57318;56.232;43.944;2023-04-25T08:17:26;99259.00;;;33.18;13.77
69980;BME280;57318;56.232;43.944;2023-04-25T08:19:51;99250.13;;;33.57;13.40
69980;BME280;57318;56.232;43.944;2023-04-25T08:22:17;99257.25;;;33.78;13.25
69980;BME280;57318;56.232;43.944;2023-04-25T08:24:42;99255.06;;;33.55;13.12
69980;BME280;57318;56.232;43.944;2023-04-25T08:27:08;99253.94;;;33.76;12.96
69980;BME280;57318;56.232;43.944;2023-04-25T08:29:33;99254.78;;;33.56;13.13
69980;BME280;57318;56.232;43.944;2023-04-25T08:32:00;99236.13;;;33.38;13.17
69980;BME280;57318;56.232;43.944;2023-04-25T08:34:25;99236.25;;;33.88;12.98
69980;BME280;57318;56.232;43.944;2023-04-25T08:36:51;99237.69;;;33.80;13.11
69980;BME280;57318;56.232;43.944;2023-04-25T08:39:17;99234.22;;;33.33;13.31
69980;BME280;57318;56.232;43.944;2023-04-25T08:41:43;99238.97;;;32.02;14.42
69980;BME280;57318;56.232;43.944;2023-04-25T08:44:11;99230.13;;;31.37;14.96
69980;BME280;57318;56.232;43.944;2023-04-25T08:46:40;99233.97;;;30.39;15.45
69980;BME280;57318;56.232;43.944;2023-04-25T08:49:07;99220.75;;;29.69;16.22
69980;BME280;57318;56.232;43.944;2023-04-25T08:51:36;99222.19;;;28.99;16.93
69980;BME280;57318;56.232;43.944;2023-04-25T08:54:09;99202.59;;;27.58;18.37
69980;BME280;57318;56.232;43.944;2023-04-25T08:56:37;99211.63;;;26.99;18.81
69980;BME280;57318;56.232;43.944;2023-04-25T08:59:03;99214.13;;;25.98;19.90
69980;BME280;57318;56.232;43.944;2023-04-25T09:01:29;99198.81;;;24.79;21.10
69980;BME280;57318;56.232;43.944;2023-04-25T09:03:54;99219.38;;;23.91;22.33
69980;BME280;57318;56.232;43.944;2023-04-25T09:06:21;99206.00;;;23.11;23.57
69980;BME280;57318;56.232;43.944;2023-04-25T09:08:49;99213.44;;;22.36;24.69
69980;BME280;57318;56.232;43.944;2023-04-25T09:11:15;99216.78;;;21.89;25.70
69980;BME280;57318;56.232;43.944;2023-04-25T09:13:41;99214.88;;;21.76;25.98
69980;BME280;57318;56.232;43.944;2023-04-25T09:16:07;99205.75;;;21.84;26.16
69980;BME280;57318;56.232;43.944;2023-04-25T09:18:34;99199.41;;;22.25;25.85
69980;BME280;57318;56.232;43.944;2023-04-25T09:21:11;99187.22;;;22.63;25.46
69980;BME280;57318;56.232;43.944;2023-04-25T09:23:45;99184.91;;;22.93;25.15
69980;BME280;57318;56.232;43.944;2023-04-25T09:26:14;99202.84;;;22.61;25.58
69980;BME280;57318;56.232;43.944;2023-04-25T09:28:40;99206.78;;;22.51;26.07
69980;BME280;57318;56.232;43.944;2023-04-25T09:31:10;99204.75;;;22.05;26.71
69980;BME280;57318;56.232;43.944;2023-04-25T09:33:37;99199.88;;;21.74;27.05
69980;BME280;57318;56.232;43.944;2023-04-25T09:36:06;99197.69;;;21.49;27.29
69980;BME280;57318;56.232;43.944;2023-04-25T09:38:40;99188.19;;;21.32;27.97
69980;BME280;57318;56.232;43.944;2023-04-25T09:41:08;99190.81;;;21.18;28.48
69980;BME280;57318;56.232;43.944;2023-04-25T09:43:34;99187.19;;;21.04;28.61
69980;BME280;57318;56.232;43.944;2023-04-25T09:46:00;99184.47;;;20.76;29.12
69980;BME280;57318;56.232;43.944;2023-04-25T09:48:28;99168.97;;;20.42;29.12
69980;BME280;57318;56.232;43.944;2023-04-25T09:51:10;99176.00;;;20.14;29.53
69980;BME280;57318;56.232;43.944;2023-04-25T09:53:38;99182.91;;;20.02;29.83
69980;BME280;57318;56.232;43.944;2023-04-25T09:56:05;99177.81;;;19.92;30.11
69980;BME280;57318;56.232;43.944;2023-04-25T09:58:33;99177.38;;;19.89;30.48
69980;BME280;57318;56.232;43.944;2023-04-25T10:01:04;99179.41;;;19.87;30.17
69980;BME280;57318;56.232;43.944;2023-04-25T10:03:32;99180.72;;;19.91;29.99
69980;BME280;57318;56.232;43.944;2023-04-25T10:06:08;99179.50;;;20.15;29.70
69980;BME280;57318;56.232;43.944;2023-04-25T10:08:35;99171.75;;;20.48;28.84
69980;BME280;57318;56.232;43.944;2023-04-25T10:11:04;99179.22;;;20.96;28.12
69980;BME280;57318;56.232;43.944;2023-04-25T10:13:31;99182.84;;;21.45;27.49
69980;BME280;57318;56.232;43.944;2023-04-25T10:15:58;99164.28;;;21.63;26.90
69980;BME280;57318;56.232;43.944;2023-04-25T10:18:28;99174.13;;;21.85;26.74
69980;BME280;57318;56.232;43.944;2023-04-25T10:20:55;99163.06;;;21.79;26.40
69980;BME280;57318;56.232;43.944;2023-04-25T10:23:23;99165.59;;;21.94;26.21
69980;BME280;57318;56.232;43.944;2023-04-25T10:25:52;99171.56;;;22.31;25.82
69980;BME280;57318;56.232;43.944;2023-04-25T10:28:18;99159.94;;;22.58;25.39
69980;BME280;57318;56.232;43.944;2023-04-25T10:31:07;99165.97;;;22.66;25.21
69980;BME280;57318;56.232;43.944;2023-04-25T10:36:15;99161.78;;;22.44;25.14
69980;BME280;57318;56.232;43.944;2023-04-25T10:38:43;99152.59;;;22.25;25.63
69980;BME280;57318;56.232;43.944;2023-04-25T10:41:10;99157.13;;;22.24;25.90
69980;BME280;57318;56.232;43.944;2023-04-25T10:43:41;99147.53;;;22.02;25.78
69980;BME280;57318;56.232;43.944;2023-04-25T10:46:17;99157.75;;;22.06;26.02
69980;BME280;57318;56.232;43.944;2023-04-25T10:48:51;99152.94;;;22.02;25.88
69980;BME280;57318;56.232;43.944;2023-04-25T10:51:20;99152.41;;;21.65;26.25
69980;BME280;57318;56.232;43.944;2023-04-25T10:53:47;99146.13;;;21.51;26.46
69980;BME280;57318;56.232;43.944;2023-04-25T10:56:30;99148.13;;;21.42;26.65
69980;BME280;57318;56.232;43.944;2023-04-25T10:59:18;99147.91;;;21.43;26.75
69980;BME280;57318;56.232;43.944;2023-04-25T11:01:48;99144.09;;;21.31;26.64
69980;BME280;57318;56.232;43.944;2023-04-25T11:04:32;99153.41;;;21.22;26.70
69980;BME280;57318;56.232;43.944;2023-04-25T11:09:51;99148.81;;;20.87;27.23
69980;BME280;57318;56.232;43.944;2023-04-25T11:12:17;99135.09;;;20.82;27.62
69980;BME280;57318;56.232;43.944;2023-04-25T11:14:43;99141.69;;;20.80;27.69
69980;BME280;57318;56.232;43.944;2023-04-25T11:17:09;99142.31;;;20.75;27.67
69980;BME280;57318;56.232;43.944;2023-04-25T11:19:36;99135.47;;;20.79;27.99
69980;BME280;57318;56.232;43.944;2023-04-25T11:22:03;99140.63;;;20.52;28.56
69980;BME280;57318;56.232;43.944;2023-04-25T11:24:31;99140.72;;;20.37;29.17
69980;BME280;57318;56.232;43.944;2023-04-25T11:27:04;99137.47;;;20.21;30.18
69980;BME280;57318;56.232;43.944;2023-04-25T11:29:32;99129.88;;;20.09;30.45
69980;BME280;57318;56.232;43.944;2023-04-25T11:31:58;99129.91;;;19.94;31.51
69980;BME280;57318;56.232;43.944;2023-04-25T11:34:25;99132.56;;;19.88;32.25
69980;BME280;57318;56.232;43.944;2023-04-25T11:36:51;99125.84;;;19.83;32.57
69980;BME280;57318;56.232;43.944;2023-04-25T11:39:19;99126.44;;;19.64;32.82
69980;BME280;57318;56.232;43.944;2023-04-25T11:41:46;99122.19;;;19.55;33.27
69980;BME280;57318;56.232;43.944;2023-04-25T11:44:15;99129.66;;;19.38;33.54
69980;BME280;57318;56.232;43.944;2023-04-25T11:46:42;99128.72;;;19.16;34.00
69980;BME280;57318;56.232;43.944;2023-04-25T11:49:07;99123.25;;;18.94;34.54
69980;BME280;57318;56.232;43.944;2023-04-25T11:51:40;99128.13;;;18.75;35.12
69980;BME280;57318;56.232;43.944;2023-04-25T11:54:06;99129.97;;;18.60;35.72
69980;BME280;57318;56.232;43.944;2023-04-25T11:56:32;99129.91;;;18.45;36.22
69980;BME280;57318;56.232;43.944;2023-04-25T11:59:05;99117.78;;;18.49;36.34
69980;BME280;57318;56.232;43.944;2023-04-25T12:01:36;99118.03;;;18.39;36.68
69980;BME280;57318;56.232;43.944;2023-04-25T12:04:16;99122.91;;;18.36;36.97
69980;BME280;57318;56.232;43.944;2023-04-25T12:06:44;99117.25;;;18.31;36.95
69980;BME280;57318;56.232;43.944;2023-04-25T12:09:12;99107.34;;;18.08;37.50
69980;BME280;57318;56.232;43.944;2023-04-25T12:12:00;99111.06;;;18.07;37.62
69980;BME280;57318;56.232;43.944;2023-04-25T12:14:31;99127.00;;;18.09;37.53
69980;BME280;57318;56.232;43.944;2023-04-25T12:16:59;99100.25;;;17.92;37.69
69980;BME280;57318;56.232;43.944;2023-04-25T12:19:26;99098.28;;;17.78;37.84
69980;BME280;57318;56.232;43.944;2023-04-25T12:21:57;99116.50;;;17.67;38.20
69980;BME280;57318;56.232;43.944;2023-04-25T12:24:25;99097.38;;;17.62;38.31
69980;BME280;57318;56.232;43.944;2023-04-25T12:27:00;99100.19;;;17.69;38.30
69980;BME280;57318;56.232;43.944;2023-04-25T12:29:28;99104.59;;;17.62;38.49
69980;BME280;57318;56.232;43.944;2023-04-25T12:31:55;99089.28;;;17.39;38.88
69980;BME280;57318;56.232;43.944;2023-04-25T12:34:23;99086.47;;;17.33;39.17
69980;BME280;57318;56.232;43.944;2023-04-25T12:36:50;99082.97;;;17.24;39.35
69980;BME280;57318;56.232;43.944;2023-04-25T12:39:16;99076.94;;;17.22;39.62
69980;BME280;57318;56.232;43.944;2023-04-25T12:41:43;99087.72;;;17.13;39.70
69980;BME280;57318;56.232;43.944;2023-04-25T12:44:09;99083.69;;;17.09;40.24
69980;BME280;57318;56.232;43.944;2023-04-25T12:46:36;99084.22;;;17.05;40.40
69980;BME280;57318;56.232;43.944;2023-04-25T12:49:03;99088.06;;;17.02;41.00
69980;BME280;57318;56.232;43.944;2023-04-25T12:51:29;99092.34;;;16.88;41.75
69980;BME280;57318;56.232;43.944;2023-04-25T12:53:55;99100.88;;;16.84;42.55
69980;BME280;57318;56.232;43.944;2023-04-25T12:56:21;99099.72;;;16.70;43.63